Time;durP1;ratioP1;P1;durP2;ratioP2;P2;SDS_P1;SDS_P2;PMS_P1;PMS_P2;Temp;Humidity;BMP_temperature;BMP_pressure;BME280_temperature;BME280_humidity;BME280_pressure;Samples;Min_cycle;Max_cycle;Signal;HPM_P1;HPM_P2
2024/03/31 00:03:41;;;;;;;21.07;4.90;;;16.90;23.80;;;;;;10421668;28;20249;-71
2024/03/31 00:08:46;;;;;;;18.97;4.60;;;16.90;23.80;;;;;;10421138;28;20248;-71
2024/03/31 00:13:48;;;;;;;19.27;4.47;;;16.80;23.30;;;;;;10423714;28;20257;-71
2024/03/31 00:18:51;;;;;;;19.60;5.03;;;16.70;23.10;;;;;;10422972;28;20699;-71
2024/03/31 00:23:54;;;;;;;25.17;5.07;;;16.60;23.00;;;;;;10423817;28;20249;-71
2024/03/31 00:28:56;;;;;;;21.07;5.73;;;16.40;23.50;;;;;;10423624;28;20273;-71
2024/03/31 00:33:58;;;;;;;20.90;5.37;;;16.20;23.50;;;;;;10422055;28;20261;-71
2024/03/31 00:39:02;;;;;;;15.67;4.90;;;15.90;23.50;;;;;;10421749;28;20799;-71
2024/03/31 00:44:05;;;;;;;23.57;6.60;;;15.70;24.10;;;;;;10422135;28;20307;-70
2024/03/31 00:49:08;;;;;;;19.67;5.90;;;15.70;24.10;;;;;;10427723;28;20311;-71
2024/03/31 00:54:11;;;;;;;27.47;5.83;;;15.60;24.20;;;;;;10424838;28;20261;-71
2024/03/31 00:59:13;;;;;;;17.80;4.77;;;15.60;24.60;;;;;;10417240;28;20261;-71
2024/03/31 01:04:16;;;;;;;20.13;5.10;;;15.60;24.30;;;;;;10419268;28;20248;-71
2024/03/31 01:09:20;;;;;;;24.10;4.67;;;15.60;24.40;;;;;;10426503;28;20249;-71
2024/03/31 01:14:22;;;;;;;21.43;4.13;;;15.60;24.90;;;;;;10422171;28;20258;-71
2024/03/31 01:19:25;;;;;;;23.50;4.53;;;15.50;24.50;;;;;;10420010;28;20307;-71
2024/03/31 01:24:28;;;;;;;19.67;4.03;;;15.40;24.60;;;;;;10417152;28;20249;-71
2024/03/31 01:29:30;;;;;;;18.80;4.30;;;15.30;25.10;;;;;;10417620;28;20253;-71
2024/03/31 01:34:34;;;;;;;20.00;5.27;;;15.10;24.70;;;;;;10418931;28;20688;-71
2024/03/31 01:39:37;;;;;;;21.83;4.13;;;14.90;25.20;;;;;;10421713;28;20262;-71
2024/03/31 01:44:39;;;;;;;20.87;4.53;;;14.70;25.60;;;;;;10422356;28;20279;-71
2024/03/31 01:49:42;;;;;;;18.43;4.33;;;14.50;25.30;;;;;;10416163;28;20256;-71
2024/03/31 01:54:45;;;;;;;15.33;4.00;;;14.40;25.50;;;;;;10422540;28;20241;-71
2024/03/31 01:59:47;;;;;;;18.53;4.10;;;14.30;26.20;;;;;;10416097;28;20264;-71
2024/03/31 02:04:49;;;;;;;20.03;5.90;;;14.40;25.90;;;;;;10419676;28;20797;-71
2024/03/31 02:09:53;;;;;;;25.63;6.40;;;14.40;26.20;;;;;;10417401;28;20249;-71
2024/03/31 02:14:55;;;;;;;29.07;6.20;;;14.20;26.60;;;;;;10415539;28;20283;-71
2024/03/31 02:19:57;;;;;;;21.67;5.93;;;14.20;26.40;;;;;;10432056;28;20299;-71
2024/03/31 02:25:01;;;;;;;24.90;5.70;;;14.20;26.70;;;;;;10418027;28;20303;-71
2024/03/31 02:30:04;;;;;;;20.07;5.13;;;14.10;26.90;;;;;;10417937;28;20253;-70
2024/03/31 02:35:06;;;;;;;23.73;5.23;;;14.20;26.60;;;;;;10433993;28;20278;-71
2024/03/31 02:40:10;;;;;;;24.33;5.40;;;14.20;26.60;;;;;;10422801;28;20911;-71
2024/03/31 02:45:13;;;;;;;27.47;5.60;;;14.20;26.90;;;;;;10423163;28;20283;-71
2024/03/31 02:50:16;;;;;;;16.27;4.20;;;14.20;26.40;;;;;;10414364;28;20257;-71
2024/03/31 02:55:19;;;;;;;25.23;5.20;;;14.20;26.60;;;;;;10418460;28;20706;-71
2024/03/31 03:00:21;;;;;;;24.07;4.60;;;14.20;27.00;;;;;;10419989;28;20264;-71
2024/03/31 03:05:24;;;;;;;22.37;4.47;;;14.30;26.60;;;;;;10415556;28;21850;-71
2024/03/31 03:10:27;;;;;;;18.57;4.13;;;14.30;26.70;;;;;;10425408;28;20290;-71
2024/03/31 03:15:30;;;;;;;14.03;3.77;;;14.30;26.80;;;;;;10430358;28;20254;-71
2024/03/31 03:20:32;;;;;;;18.00;3.90;;;14.40;26.50;;;;;;10425976;28;20240;-71
2024/03/31 03:25:35;;;;;;;18.53;4.13;;;14.40;26.60;;;;;;10438103;28;20662;-71
2024/03/31 03:30:38;;;;;;;16.13;3.93;;;14.40;27.10;;;;;;10429784;28;20315;-71
2024/03/31 03:35:40;;;;;;;17.83;4.17;;;14.40;26.70;;;;;;10424724;28;20248;-71
2024/03/31 03:40:44;;;;;;;14.43;3.70;;;14.40;26.70;;;;;;10425770;28;21073;-71
2024/03/31 03:45:47;;;;;;;18.57;4.20;;;14.40;27.00;;;;;;10428656;28;20986;-71
2024/03/31 03:50:49;;;;;;;15.60;3.53;;;14.40;26.80;;;;;;10424114;28;20320;-71
2024/03/31 03:55:52;;;;;;;12.73;4.27;;;14.40;26.60;;;;;;10439270;28;20252;-71
2024/03/31 04:00:56;;;;;;;17.57;4.37;;;14.30;27.10;;;;;;10431812;28;20307;-71
2024/03/31 04:05:59;;;;;;;16.20;4.00;;;14.30;26.80;;;;;;10423762;28;20310;-71
2024/03/31 04:11:02;;;;;;;16.80;4.07;;;14.20;26.70;;;;;;10423122;28;20255;-71
2024/03/31 04:16:05;;;;;;;15.50;4.37;;;14.20;27.10;;;;;;10439305;28;20294;-71
2024/03/31 04:21:08;;;;;;;15.37;4.10;;;14.10;26.80;;;;;;10440906;28;20264;-71
2024/03/31 04:26:11;;;;;;;15.83;4.23;;;14.10;26.90;;;;;;10421311;28;21094;-71
2024/03/31 04:31:14;;;;;;;17.10;3.70;;;13.70;27.10;;;;;;10422130;28;20656;-71
2024/03/31 04:36:16;;;;;;;22.73;4.70;;;13.50;26.80;;;;;;10425204;28;20248;-71
2024/03/31 04:41:19;;;;;;;15.63;3.90;;;13.30;27.20;;;;;;10440273;28;20275;-71
2024/03/31 04:46:22;;;;;;;12.47;3.50;;;13.20;27.50;;;;;;10427720;28;20245;-71
2024/03/31 04:51:24;;;;;;;19.50;3.97;;;13.00;27.40;;;;;;10422443;28;20268;-71
2024/03/31 04:56:27;;;;;;;17.50;4.50;;;12.90;27.70;;;;;;10424563;28;20237;-71
2024/03/31 05:01:29;;;;;;;16.33;3.83;;;12.90;28.00;;;;;;10421441;28;21149;-71
2024/03/31 05:06:33;;;;;;;17.73;4.20;;;12.90;27.80;;;;;;10422370;28;20256;-71
2024/03/31 05:11:37;;;;;;;18.53;3.73;;;12.80;27.70;;;;;;10426174;28;20641;-71
2024/03/31 05:16:39;;;;;;;16.23;3.97;;;12.70;28.20;;;;;;10418458;28;20256;-71
2024/03/31 05:21:42;;;;;;;13.47;3.80;;;12.60;27.90;;;;;;10424166;28;21071;-71
2024/03/31 05:26:45;;;;;;;9.60;3.73;;;12.50;28.00;;;;;;10426931;28;20256;-71
2024/03/31 05:31:47;;;;;;;15.63;4.40;;;12.50;28.40;;;;;;10419319;28;20662;-71
2024/03/31 05:36:50;;;;;;;15.90;4.30;;;12.50;28.30;;;;;;10423955;28;20237;-71
2024/03/31 05:41:53;;;;;;;20.53;4.20;;;12.50;28.30;;;;;;10422584;28;20287;-71
2024/03/31 05:46:55;;;;;;;15.43;3.63;;;12.50;28.90;;;;;;10418572;28;20245;-71
2024/03/31 05:51:58;;;;;;;12.60;4.03;;;12.50;28.60;;;;;;10419753;28;20256;-71
2024/03/31 05:57:01;;;;;;;20.63;4.67;;;12.50;28.80;;;;;;10415952;28;20252;-71
2024/03/31 06:02:03;;;;;;;17.57;4.40;;;12.50;29.40;;;;;;10428804;28;20256;-71
2024/03/31 06:07:06;;;;;;;13.47;4.27;;;12.50;29.00;;;;;;10419613;28;20282;-71
2024/03/31 06:12:09;;;;;;;19.00;4.33;;;12.40;29.00;;;;;;10413529;28;20274;-71
2024/03/31 06:17:13;;;;;;;18.80;4.30;;;12.40;29.80;;;;;;10415999;28;20229;-71
2024/03/31 06:22:15;;;;;;;19.33;4.90;;;12.50;29.40;;;;;;10417342;28;20302;-71
2024/03/31 06:27:19;;;;;;;17.93;4.20;;;12.50;29.50;;;;;;10435770;28;20705;-71
2024/03/31 06:32:21;;;;;;;14.80;4.00;;;12.60;30.00;;;;;;10419261;28;20330;-71
2024/03/31 06:37:23;;;;;;;14.00;4.30;;;12.60;29.40;;;;;;10420678;28;20245;-71
2024/03/31 06:42:27;;;;;;;20.20;4.37;;;12.70;29.70;;;;;;10416116;28;20260;-71
2024/03/31 06:47:29;;;;;;;15.57;4.90;;;12.80;30.10;;;;;;10415439;28;20279;-71
2024/03/31 06:52:31;;;;;;;19.20;4.50;;;12.80;29.80;;;;;;10417575;28;20252;-71
2024/03/31 06:57:35;;;;;;;21.13;4.50;;;12.80;30.00;;;;;;10417461;28;20257;-71
2024/03/31 07:02:37;;;;;;;14.23;6.37;;;12.70;30.10;;;;;;10416695;28;20301;-71
2024/03/31 07:07:40;;;;;;;27.17;9.20;;;12.70;30.10;;;;;;10420184;28;20248;-71
2024/03/31 07:12:43;;;;;;;30.50;14.30;;;12.60;30.00;;;;;;10419952;28;20253;-71
2024/03/31 07:17:49;;;;;;;25.50;7.73;;;12.70;30.10;;;;;;10417825;28;20249;-71
2024/03/31 07:22:51;;;;;;;20.27;7.47;;;12.70;30.50;;;;;;10415179;28;20998;-71
2024/03/31 07:27:55;;;;;;;19.03;6.63;;;12.80;30.20;;;;;;10420750;28;20252;-71
2024/03/31 07:32:57;;;;;;;18.23;7.60;;;12.80;30.20;;;;;;10417789;28;20241;-71
2024/03/31 07:37:59;;;;;;;20.10;6.67;;;12.90;30.30;;;;;;10416003;28;20295;-71
2024/03/31 07:43:04;;;;;;;20.27;6.67;;;13.00;30.40;;;;;;10415334;28;20253;-71
2024/03/31 07:48:07;;;;;;;21.83;5.90;;;13.10;31.20;;;;;;10416908;28;20283;-71
2024/03/31 07:53:09;;;;;;;21.80;5.60;;;13.20;30.80;;;;;;10428123;28;20679;-71
2024/03/31 07:58:12;;;;;;;22.73;5.37;;;13.40;30.70;;;;;;10444338;28;20295;-71
2024/03/31 08:03:15;;;;;;;24.80;5.43;;;13.50;30.80;;;;;;10431008;28;20253;-71
2024/03/31 08:08:17;;;;;;;18.30;5.10;;;13.60;30.90;;;;;;10424280;28;20264;-71
2024/03/31 08:13:21;;;;;;;16.97;5.40;;;13.70;31.00;;;;;;10424122;28;20378;-71
2024/03/31 08:18:23;;;;;;;15.97;4.30;;;13.80;31.10;;;;;;10424508;28;20621;-70
2024/03/31 08:23:25;;;;;;;18.53;5.13;;;13.90;31.10;;;;;;10420080;28;20280;-71
2024/03/31 08:28:29;;;;;;;18.10;4.80;;;14.10;31.30;;;;;;10425045;28;20664;-71
2024/03/31 08:33:31;;;;;;;15.07;3.80;;;14.20;31.40;;;;;;10436809;28;21087;-71
2024/03/31 08:38:33;;;;;;;20.77;5.33;;;14.40;30.80;;;;;;10422931;28;20253;-71
2024/03/31 08:43:39;;;;;;;19.00;4.80;;;14.50;30.60;;;;;;10419801;28;20261;-71
2024/03/31 08:48:42;;;;;;;19.43;4.40;;;14.70;31.90;;;;;;10420872;28;20754;-71
2024/03/31 08:53:45;;;;;;;21.37;4.63;;;14.70;30.80;;;;;;10421997;28;20306;-71
2024/03/31 08:58:49;;;;;;;16.47;4.27;;;14.70;30.70;;;;;;10421393;28;20303;-71
2024/03/31 09:03:51;;;;;;;20.57;4.93;;;14.80;31.00;;;;;;10422693;28;20253;-71
2024/03/31 09:08:56;;;;;;;15.53;4.43;;;14.80;30.70;;;;;;10418946;28;20299;-71
2024/03/31 09:14:00;;;;;;;15.80;4.07;;;14.90;31.60;;;;;;10425742;28;20256;-71
2024/03/31 09:19:02;;;;;;;18.33;4.77;;;14.90;31.10;;;;;;10422780;28;20307;-71
2024/03/31 09:24:05;;;;;;;15.87;4.20;;;14.90;30.70;;;;;;10429502;28;20817;-71
2024/03/31 09:29:10;;;;;;;14.03;4.00;;;15.00;30.90;;;;;;10420869;28;20283;-71
2024/03/31 09:34:12;;;;;;;16.40;4.00;;;15.10;31.50;;;;;;10420735;28;20302;-71
2024/03/31 09:39:14;;;;;;;13.00;3.73;;;15.20;30.90;;;;;;10421213;28;20248;-71
2024/03/31 09:44:18;;;;;;;13.03;3.73;;;15.20;30.60;;;;;;10420067;28;20264;-71
2024/03/31 09:49:28;;;;;;;15.47;4.07;;;15.30;31.30;;;;;;10421022;28;20249;-71
2024/03/31 09:54:33;;;;;;;11.97;4.03;;;15.30;32.00;;;;;;10423027;28;20276;-71
2024/03/31 09:59:40;;;;;;;13.43;4.07;;;15.40;31.80;;;;;;10416626;28;20335;-71
2024/03/31 10:04:50;;;;;;;15.57;3.93;;;15.50;32.30;;;;;;10418368;28;20273;-71
2024/03/31 10:09:54;;;;;;;16.33;4.00;;;15.50;31.80;;;;;;10418417;28;20275;-71
2024/03/31 10:15:01;;;;;;;22.03;4.50;;;15.60;31.70;;;;;;10434300;28;20245;-71
2024/03/31 10:20:05;;;;;;;18.23;4.00;;;15.70;31.70;;;;;;10424838;28;20652;-71
2024/03/31 10:25:09;;;;;;;16.40;3.80;;;15.80;31.30;;;;;;10419524;28;20291;-71
2024/03/31 10:30:13;;;;;;;16.67;3.93;;;15.80;31.30;;;;;;10422340;28;20279;-71
2024/03/31 10:35:15;;;;;;;14.43;4.23;;;15.90;31.60;;;;;;10418442;28;20705;-71
2024/03/31 10:40:19;;;;;;;18.40;3.87;;;16.10;31.30;;;;;;10416227;28;20240;-71
2024/03/31 10:45:24;;;;;;;14.43;3.53;;;16.20;31.40;;;;;;10433290;28;20345;-71
2024/03/31 10:50:27;;;;;;;12.33;3.40;;;16.30;31.40;;;;;;10433816;28;20826;-71
2024/03/31 10:55:29;;;;;;;17.43;4.20;;;16.50;31.30;;;;;;10417444;28;20248;-71
2024/03/31 11:00:37;;;;;;;26.33;4.37;;;16.60;31.00;;;;;;10418191;28;20253;-71
2024/03/31 11:05:40;;;;;;;18.43;4.37;;;16.60;31.50;;;;;;10417062;28;20656;-71
2024/03/31 11:10:42;;;;;;;15.43;3.97;;;16.70;30.90;;;;;;10416179;28;20319;-70
2024/03/31 11:15:45;;;;;;;13.13;4.03;;;16.80;30.90;;;;;;10418135;28;20248;-71
2024/03/31 11:20:48;;;;;;;19.13;3.80;;;16.90;31.30;;;;;;10423737;28;20256;-71
2024/03/31 11:25:50;;;;;;;16.00;3.73;;;17.00;31.00;;;;;;10436937;28;20325;-71
2024/03/31 11:30:54;;;;;;;22.03;3.60;;;17.30;31.00;;;;;;10425332;28;20237;-71
2024/03/31 11:35:57;;;;;;;17.80;3.60;;;17.60;30.80;;;;;;10429529;28;20245;-71
2024/03/31 11:40:59;;;;;;;13.53;3.17;;;17.80;30.20;;;;;;10425957;28;20311;-71
2024/03/31 11:46:04;;;;;;;15.13;3.90;;;18.00;30.30;;;;;;10422518;28;20256;-70
2024/03/31 11:51:06;;;;;;;16.70;3.57;;;18.10;30.70;;;;;;10431250;28;20249;-70
2024/03/31 11:56:08;;;;;;;22.03;3.97;;;18.30;30.00;;;;;;10437452;28;20321;-70
2024/03/31 12:01:17;;;;;;;17.47;3.93;;;18.40;30.00;;;;;;10425382;28;20415;-71
2024/03/31 12:06:19;;;;;;;18.30;3.47;;;18.50;29.80;;;;;;10424246;28;20252;-70
2024/03/31 12:11:22;;;;;;;19.03;3.40;;;18.60;29.60;;;;;;10425832;28;20283;-70
2024/03/31 12:16:26;;;;;;;15.37;3.37;;;18.80;29.80;;;;;;10429709;28;20252;-70
2024/03/31 12:21:29;;;;;;;14.83;3.60;;;19.00;29.60;;;;;;10438755;28;20718;-70
2024/03/31 12:26:31;;;;;;;17.80;3.80;;;19.20;29.50;;;;;;10439301;28;20276;-71
2024/03/31 12:31:35;;;;;;;15.93;3.60;;;19.30;29.70;;;;;;10443245;28;20306;-71
2024/03/31 12:36:37;;;;;;;15.87;3.50;;;19.50;29.60;;;;;;10426120;28;20245;-71
2024/03/31 12:41:42;;;;;;;17.10;3.67;;;19.70;29.10;;;;;;10421583;28;20245;-71
2024/03/31 12:46:47;;;;;;;16.20;3.73;;;19.80;28.70;;;;;;10421088;28;20755;-71
2024/03/31 12:51:53;;;;;;;13.90;4.10;;;19.80;28.40;;;;;;10419268;28;20253;-71
2024/03/31 12:56:56;;;;;;;22.23;4.43;;;19.80;28.20;;;;;;10421587;28;20256;-70
2024/03/31 13:02:01;;;;;;;19.43;3.67;;;19.80;28.60;;;;;;10422073;28;20244;-70
2024/03/31 13:07:04;;;;;;;17.53;4.13;;;19.80;28.70;;;;;;10423953;28;20707;-70
2024/03/31 13:12:08;;;;;;;17.17;3.60;;;20.00;28.80;;;;;;10418698;28;20262;-71
2024/03/31 13:17:11;;;;;;;16.47;3.50;;;20.10;28.80;;;;;;10421210;28;20253;-71
2024/03/31 13:22:14;;;;;;;17.23;4.20;;;20.20;28.40;;;;;;10425662;28;20256;-71
2024/03/31 13:27:16;;;;;;;14.83;3.97;;;20.30;28.40;;;;;;10427719;28;20715;-71
2024/03/31 13:32:19;;;;;;;20.67;4.17;;;20.30;28.30;;;;;;10431834;28;20252;-71
2024/03/31 13:37:22;;;;;;;17.77;4.10;;;20.20;28.00;;;;;;10419051;28;20257;-71
2024/03/31 13:42:24;;;;;;;19.97;3.60;;;20.20;28.20;;;;;;10419521;28;20249;-70
2024/03/31 13:47:28;;;;;;;14.30;3.77;;;20.20;28.30;;;;;;10417229;28;20287;-71
2024/03/31 13:52:30;;;;;;;15.13;3.97;;;20.20;28.50;;;;;;10417301;28;20312;-71
2024/03/31 13:57:32;;;;;;;13.27;3.40;;;20.30;28.50;;;;;;10422753;28;20265;-71
2024/03/31 14:02:35;;;;;;;18.83;3.73;;;20.30;28.40;;;;;;10420071;28;20736;-71
2024/03/31 14:07:38;;;;;;;17.67;3.80;;;20.40;28.60;;;;;;10419014;28;20785;-71
2024/03/31 14:12:41;;;;;;;13.63;4.40;;;20.60;28.60;;;;;;10437863;28;20344;-71
2024/03/31 14:17:44;;;;;;;14.33;3.73;;;20.70;28.40;;;;;;10422104;28;20268;-71
2024/03/31 14:22:46;;;;;;;13.83;3.70;;;20.80;28.30;;;;;;10431521;28;20241;-70
2024/03/31 14:27:49;;;;;;;15.00;3.60;;;20.90;28.30;;;;;;10417477;28;20245;-70
2024/03/31 14:32:52;;;;;;;17.03;4.00;;;20.90;28.20;;;;;;10419290;28;20264;-70
2024/03/31 14:37:54;;;;;;;14.30;3.07;;;21.00;28.10;;;;;;10420650;28;20252;-70
2024/03/31 14:42:56;;;;;;;14.63;3.80;;;21.10;28.90;;;;;;10413163;28;20248;-70
2024/03/31 14:48:00;;;;;;;13.60;4.07;;;21.20;28.40;;;;;;10421074;28;20256;-70
2024/03/31 14:53:02;;;;;;;14.80;3.80;;;21.30;27.90;;;;;;10419461;28;20860;-70
2024/03/31 14:58:06;;;;;;;20.83;4.07;;;21.50;27.90;;;;;;10418629;28;20241;-70
2024/03/31 15:03:11;;;;;;;16.10;4.03;;;21.60;27.60;;;;;;10415874;28;20259;-70
2024/03/31 15:08:13;;;;;;;14.80;4.03;;;21.60;27.20;;;;;;10422176;28;20257;-70
2024/03/31 15:13:15;;;;;;;12.73;3.70;;;21.70;27.40;;;;;;10415336;28;20316;-70
2024/03/31 15:18:18;;;;;;;13.43;2.97;;;21.80;27.30;;;;;;10422490;28;20267;-70
2024/03/31 15:23:21;;;;;;;12.93;3.10;;;21.90;26.60;;;;;;10419541;28;20275;-70
2024/03/31 15:28:23;;;;;;;14.80;3.40;;;22.00;26.80;;;;;;10418434;28;21243;-70
2024/03/31 15:33:27;;;;;;;12.63;3.57;;;22.10;27.20;;;;;;10411524;28;20787;-71
2024/03/31 15:38:30;;;;;;;18.13;3.73;;;22.10;26.70;;;;;;10432967;28;20245;-71
2024/03/31 15:43:32;;;;;;;14.47;3.47;;;22.20;26.80;;;;;;10417948;28;20650;-71
2024/03/31 15:48:36;;;;;;;16.00;3.53;;;22.10;26.70;;;;;;10431414;28;20264;-71
2024/03/31 15:53:38;;;;;;;13.73;3.57;;;22.10;26.70;;;;;;10431438;28;20291;-71
2024/03/31 15:58:40;;;;;;;15.27;3.53;;;22.10;26.90;;;;;;10417033;28;20358;-70
2024/03/31 16:03:44;;;;;;;14.40;3.60;;;22.10;26.70;;;;;;10416910;28;20249;-70
2024/03/31 16:08:46;;;;;;;17.00;3.93;;;22.00;26.70;;;;;;10414772;28;20233;-70
2024/03/31 16:13:52;;;;;;;11.53;3.20;;;22.00;26.80;;;;;;10425739;28;20252;-70
2024/03/31 16:18:55;;;;;;;17.87;4.37;;;22.10;26.80;;;;;;10425876;28;20639;-70
2024/03/31 16:23:58;;;;;;;14.40;3.67;;;22.10;26.70;;;;;;10424552;28;20237;-71
2024/03/31 16:29:00;;;;;;;12.50;3.90;;;22.10;26.70;;;;;;10423696;28;20813;-71
2024/03/31 16:34:04;;;;;;;15.03;3.97;;;22.10;26.70;;;;;;10424994;28;20360;-71
2024/03/31 16:39:06;;;;;;;15.07;3.60;;;22.10;26.70;;;;;;10422859;28;20249;-70
2024/03/31 16:44:08;;;;;;;13.73;3.63;;;22.00;26.70;;;;;;10439004;28;20260;-70
2024/03/31 16:49:12;;;;;;;9.10;3.17;;;22.00;26.90;;;;;;10419138;28;20256;-71
2024/03/31 16:54:14;;;;;;;13.77;3.27;;;22.00;27.20;;;;;;10421704;28;20275;-71
2024/03/31 16:59:16;;;;;;;17.60;3.90;;;22.00;26.90;;;;;;10421406;28;20249;-71
2024/03/31 17:04:20;;;;;;;11.00;3.20;;;21.90;26.60;;;;;;10421062;28;20302;-71
2024/03/31 17:09:22;;;;;;;13.93;3.43;;;21.90;26.90;;;;;;10435643;28;20311;-70
2024/03/31 17:14:24;;;;;;;11.63;3.43;;;21.80;27.20;;;;;;10424815;28;20253;-71
2024/03/31 17:19:28;;;;;;;11.70;4.47;;;21.70;27.20;;;;;;10440679;28;20252;-71
2024/03/31 17:24:31;;;;;;;10.97;4.73;;;21.70;27.30;;;;;;10421569;28;20253;-71
2024/03/31 17:29:33;;;;;;;16.43;5.00;;;21.60;27.50;;;;;;10422581;28;20701;-71
2024/03/31 17:34:36;;;;;;;15.33;5.53;;;21.50;28.10;;;;;;10425603;28;20739;-71
2024/03/31 17:39:39;;;;;;;18.03;6.87;;;21.40;27.70;;;;;;10423900;28;20241;-71
2024/03/31 17:44:41;;;;;;;14.43;5.60;;;21.30;27.50;;;;;;10421973;28;20263;-71
2024/03/31 17:49:44;;;;;;;20.80;6.77;;;21.10;27.50;;;;;;10422574;28;20282;-71
2024/03/31 17:54:46;;;;;;;12.13;4.80;;;21.00;28.50;;;;;;10422611;28;20291;-71
2024/03/31 17:59:49;;;;;;;13.83;4.70;;;20.90;27.80;;;;;;10426442;28;20311;-71
2024/03/31 18:04:54;;;;;;;15.57;4.57;;;20.80;28.00;;;;;;10422149;28;20252;-71
2024/03/31 18:09:56;;;;;;;18.37;4.87;;;20.80;27.90;;;;;;10418618;28;20608;-71
2024/03/31 18:14:58;;;;;;;16.13;5.40;;;20.70;27.80;;;;;;10422992;28;20340;-71
2024/03/31 18:20:05;;;;;;;15.10;5.30;;;20.60;27.90;;;;;;10412835;28;20303;-71
2024/03/31 18:25:08;;;;;;;19.70;8.50;;;20.60;28.00;;;;;;10431300;28;20244;-71
2024/03/31 18:30:11;;;;;;;15.23;7.40;;;20.50;27.90;;;;;;10420390;28;20712;-71
2024/03/31 18:35:15;;;;;;;14.77;6.40;;;20.40;27.90;;;;;;10422516;28;20279;-71
2024/03/31 18:40:17;;;;;;;13.60;6.13;;;20.40;28.20;;;;;;10415564;28;20253;-70
2024/03/31 18:45:20;;;;;;;15.70;6.43;;;20.30;28.20;;;;;;10419744;28;20253;-70
2024/03/31 18:50:23;;;;;;;10.80;5.00;;;20.20;27.90;;;;;;10416243;28;20256;-70
2024/03/31 18:55:26;;;;;;;10.07;3.20;;;20.20;27.40;;;;;;10418647;28;20319;-71
2024/03/31 19:00:29;;;;;;;8.80;2.90;;;20.00;26.90;;;;;;10424295;28;20241;-71
2024/03/31 19:05:33;;;;;;;7.53;2.67;;;19.90;26.90;;;;;;10416409;28;21062;-70
2024/03/31 19:10:35;;;;;;;5.13;2.50;;;19.90;26.80;;;;;;10420062;28;20279;-70
2024/03/31 19:15:37;;;;;;;5.17;2.13;;;19.90;26.80;;;;;;10417305;28;20254;-70
2024/03/31 19:20:41;;;;;;;4.07;2.47;;;19.80;26.60;;;;;;10433145;28;20248;-70
2024/03/31 19:25:43;;;;;;;5.30;1.60;;;19.90;26.40;;;;;;10417126;28;20315;-71
2024/03/31 19:30:45;;;;;;;6.23;1.87;;;19.80;26.30;;;;;;10419945;28;20281;-70
2024/03/31 19:35:49;;;;;;;4.63;2.10;;;19.80;26.40;;;;;;10419717;28;20867;-70
2024/03/31 19:40:55;;;;;;;4.83;3.33;;;19.70;26.30;;;;;;10424279;28;20280;-70
2024/03/31 19:46:07;;;;;;;5.27;3.20;;;19.70;26.10;;;;;;10413028;28;20260;-70
2024/03/31 19:51:11;;;;;;;3.87;3.07;;;19.60;25.60;;;;;;10420969;28;20723;-70
2024/03/31 19:56:13;;;;;;;3.10;2.60;;;19.60;25.90;;;;;;10422500;28;20244;-71
2024/03/31 20:01:15;;;;;;;2.40;2.20;;;19.50;25.30;;;;;;10421306;28;20249;-71
2024/03/31 20:06:19;;;;;;;1.90;1.60;;;19.40;25.10;;;;;;10428961;28;21138;-71
2024/03/31 20:11:21;;;;;;;1.50;1.10;;;19.30;24.80;;;;;;10423231;28;20311;-71
2024/03/31 20:16:23;;;;;;;1.10;1.00;;;19.20;25.10;;;;;;10422896;28;21254;-71
2024/03/31 20:21:27;;;;;;;1.57;1.00;;;19.10;25.20;;;;;;10430797;28;20306;-71
2024/03/31 20:26:29;;;;;;;2.80;1.30;;;19.10;25.10;;;;;;10431569;28;20254;-70
2024/03/31 20:31:31;;;;;;;1.30;1.03;;;19.10;25.30;;;;;;10423204;28;20248;-71
2024/03/31 20:36:35;;;;;;;2.57;1.30;;;19.00;25.60;;;;;;10439980;28;20296;-71
2024/03/31 20:41:37;;;;;;;3.57;1.40;;;19.00;25.50;;;;;;10434049;28;20257;-70
2024/03/31 20:46:39;;;;;;;3.67;3.20;;;18.90;25.50;;;;;;10421017;28;20838;-71
2024/03/31 20:51:43;;;;;;;4.03;3.37;;;18.70;25.40;;;;;;10420985;28;20375;-71
2024/03/31 20:56:45;;;;;;;2.30;2.10;;;18.50;25.70;;;;;;10421501;28;20804;-71
2024/03/31 21:01:47;;;;;;;2.63;2.20;;;18.30;25.50;;;;;;10422604;28;20260;-71
2024/03/31 21:06:51;;;;;;;2.43;1.90;;;18.20;25.80;;;;;;10416238;28;20323;-70
2024/03/31 21:11:53;;;;;;;2.30;2.10;;;18.00;26.00;;;;;;10419976;28;20738;-71
2024/03/31 21:16:56;;;;;;;2.30;2.10;;;18.00;26.20;;;;;;10424628;28;20255;-71
2024/03/31 21:22:01;;;;;;;3.13;2.03;;;17.90;26.20;;;;;;10419612;28;20355;-70
2024/03/31 21:27:07;;;;;;;2.60;2.00;;;17.80;26.20;;;;;;10421682;28;20632;-71
2024/03/31 21:32:09;;;;;;;3.20;2.07;;;17.80;26.10;;;;;;10423588;28;20258;-71
2024/03/31 21:37:13;;;;;;;4.37;2.40;;;17.70;26.10;;;;;;10431970;28;20260;-71
2024/03/31 21:42:15;;;;;;;3.03;1.60;;;17.60;25.80;;;;;;10436606;28;20249;-71
2024/03/31 21:47:17;;;;;;;1.60;1.17;;;17.60;25.60;;;;;;10422063;28;20811;-71
2024/03/31 21:52:21;;;;;;;1.97;1.00;;;17.40;25.40;;;;;;10417353;28;20248;-71
2024/03/31 21:57:23;;;;;;;1.73;1.00;;;17.40;25.20;;;;;;10419464;28;20294;-71
2024/03/31 22:02:25;;;;;;;1.60;0.70;;;17.30;25.30;;;;;;10422236;28;20265;-71
2024/03/31 22:07:30;;;;;;;2.20;0.90;;;17.30;25.40;;;;;;10433310;28;20248;-71
2024/03/31 22:12:32;;;;;;;2.97;0.90;;;17.20;25.20;;;;;;10417880;28;20272;-71
2024/03/31 22:17:34;;;;;;;1.33;0.90;;;17.20;25.50;;;;;;10431747;28;20336;-71
2024/03/31 22:22:38;;;;;;;0.70;0.70;;;17.20;25.40;;;;;;10415021;28;20245;-71
2024/03/31 22:27:40;;;;;;;0.73;0.70;;;17.30;25.40;;;;;;10422215;28;20286;-71
2024/03/31 22:32:42;;;;;;;3.13;0.80;;;17.30;25.30;;;;;;10418104;28;20257;-71
2024/03/31 22:37:46;;;;;;;1.53;0.80;;;17.40;25.40;;;;;;10417797;28;20319;-70
2024/03/31 22:42:48;;;;;;;1.97;0.90;;;17.40;25.10;;;;;;10417369;28;20260;-71
2024/03/31 22:47:50;;;;;;;2.83;0.70;;;17.50;25.40;;;;;;10416155;28;20245;-71
2024/03/31 22:52:54;;;;;;;1.60;0.70;;;17.50;25.20;;;;;;10415636;28;20270;-71
2024/03/31 22:57:56;;;;;;;4.70;1.00;;;17.50;24.90;;;;;;10424972;28;20860;-71
2024/03/31 23:02:58;;;;;;;0.67;0.67;;;17.50;25.10;;;;;;10423271;28;20311;-71
2024/03/31 23:08:02;;;;;;;1.80;0.70;;;17.60;25.10;;;;;;10419604;28;20245;-71
2024/03/31 23:13:04;;;;;;;2.73;0.93;;;17.70;24.80;;;;;;10430698;28;20253;-71
2024/03/31 23:18:07;;;;;;;2.27;0.80;;;17.70;25.00;;;;;;10421576;28;20267;-71
2024/03/31 23:23:10;;;;;;;1.53;0.80;;;17.90;25.40;;;;;;10426818;28;20244;-71
2024/03/31 23:28:12;;;;;;;4.17;0.80;;;18.00;24.60;;;;;;10428399;28;20252;-71
2024/03/31 23:33:15;;;;;;;2.77;0.80;;;18.00;24.70;;;;;;10423960;28;20260;-71
2024/03/31 23:38:19;;;;;;;1.70;0.90;;;18.10;24.60;;;;;;10428881;28;20253;-71
2024/03/31 23:43:21;;;;;;;2.03;0.70;;;18.10;24.20;;;;;;10433032;28;20286;-71
2024/03/31 23:48:24;;;;;;;2.00;0.90;;;18.20;24.10;;;;;;10424564;28;20249;-71
2024/03/31 23:53:28;;;;;;;1.90;0.77;;;18.10;24.10;;;;;;10431468;28;20837;-71
2024/03/31 23:58:30;;;;;;;1.43;0.70;;;18.20;24.20;;;;;;10422036;28;20252;-71
